Date,TemperatureHighF,TemperatureAvgF,TemperatureLowF,DewpointHighF,DewpointAvgF,DewpointLowF,HumidityHigh,HumidityAvg,HumidityLow,PressureMaxIn,PressureMinIn,WindSpeedMaxMPH,WindSpeedAvgMPH,GustSpeedMaxMPH,PrecipitationSumIn
2013-1-1,52.0,35.3,28.0,28.0,18.2,8.0,78,53,30,29.93,29.79,12,3,18,0.04
2013-1-2,59.0,38.8,27.0,16.0,7.2,-1.0,42,29,15,29.96,29.69,13,6,22,0.00
2013-1-3,47.0,37.1,31.0,7.0,3.4,-1.0,30,24,17,30.00,29.83,15,9,30,0.00
2013-1-4,57.0,38.0,28.0,13.0,5.0,-1.0,32,26,15,30.06,29.86,13,3,17,0.00
2013-1-5,61.0,38.0,26.0,15.0,5.7,0.0,34,27,14,30.10,29.93,4,2,7,0.00
2013-1-6,61.0,41.9,33.0,18.0,8.7,4.0,33,26,15,30.00,29.62,11,2,15,0.00
2013-1-7,63.0,43.3,34.0,22.0,10.8,4.0,36,27,16,29.73,29.56,10,4,15,0.00
2013-1-8,66.0,45.1,31.0,18.0,10.0,4.0,32,25,13,29.96,29.69,10,3,13,0.00
2013-1-9,71.0,49.7,39.0,25.0,15.7,10.0,39,27,14,30.00,29.76,8,3,13,0.00
2013-1-10,52.0,43.9,37.0,26.0,17.0,13.0,50,34,26,29.79,29.39,15,6,25,0.00
2013-1-11,47.0,34.6,27.0,20.0,5.2,-12.0,49,30,11,29.66,29.46,16,6,23,0.00
2013-1-12,44.0,31.9,21.0,8.0,-1.9,-7.0,33,23,18,29.73,29.56,9,4,15,0.00
2013-1-13,45.0,29.0,18.0,7.0,-2.6,-8.0,34,25,17,29.76,29.62,8,2,12,0.00
2013-1-14,44.0,27.4,21.0,7.0,-2.7,-11.0,38,27,20,29.96,29.66,9,4,16,0.00
2013-1-15,50.0,30.4,18.0,6.0,-4.0,-13.0,30,22,16,30.13,29.96,6,2,11,0.00
2013-1-16,63.0,40.2,27.0,16.0,6.9,1.0,33,26,16,30.16,30.03,11,4,17,0.00
2013-1-17,62.0,46.2,37.0,15.0,9.2,4.0,30,22,15,30.16,30.03,14,7,20,0.00
2013-1-18,68.0,46.2,34.0,20.0,11.4,6.0,33,25,15,30.16,29.96,7,2,8,0.00
2013-1-19,70.0,47.9,35.0,22.0,11.2,1.0,37,24,13,30.16,30.00,11,3,13,0.00
2013-1-20,71.0,48.6,33.0,16.0,7.0,0.0,30,19,12,30.10,29.89,9,3,13,0.00
2013-1-21,70.0,52.0,37.0,15.0,7.3,2.0,24,16,12,30.06,29.93,10,5,15,0.00
2013-1-22,74.0,51.6,36.0,16.0,7.0,-1.0,22,17,11,30.06,29.96,5,2,8,0.00
2013-1-23,70.0,51.1,38.0,19.0,12.0,4.0,27,21,14,30.13,29.96,6,2,7,0.00
2013-1-24,54.0,50.0,48.0,42.0,29.4,16.0,80,48,27,30.10,29.96,6,1,9,0.00
2013-1-25,61.0,52.4,47.0,47.0,44.0,41.0,91,74,54,30.06,29.83,6,1,8,0.20
2013-1-26,52.0,49.5,48.0,51.0,48.3,47.0,98,97,91,29.86,29.62,7,3,13,1.74
2013-1-27,56.0,48.9,45.0,52.0,46.2,42.0,98,91,69,29.76,29.62,11,4,17,0.29
2013-1-28,45.0,39.8,34.0,43.0,33.2,25.0,97,78,52,29.66,29.52,12,5,16,0.21
2013-1-29,48.0,35.1,26.0,29.0,22.0,18.0,86,60,37,29.86,29.62,8,2,10,0.12
2013-1-30,58.0,39.9,28.0,24.0,20.6,15.0,63,48,26,30.06,29.86,6,2,9,0.00
2013-1-31,57.0,42.2,33.0,31.0,27.6,24.0,72,58,36,30.03,29.93,3,1,4,0.00
2013-2-1,69.0,51.9,42.0,25.0,22.5,18.0,45,33,17,30.06,29.89,3,1,4,0.00
2013-2-2,73.0,53.1,38.0,30.0,22.3,17.0,50,33,14,30.13,29.86,8,3,11,0.00
2013-2-3,59.0,50.9,45.0,31.0,26.9,20.0,52,39,32,30.00,29.69,8,2,13,0.00
2013-2-4,73.0,52.7,39.0,34.0,26.2,17.0,63,40,17,29.83,29.69,7,3,10,0.00
2013-2-5,73.0,52.7,38.0,27.0,20.8,14.0,43,31,13,29.83,29.66,7,2,10,0.00
2013-2-6,68.0,50.7,41.0,35.0,29.0,23.0,60,45,23,29.79,29.62,7,2,11,0.00
2013-2-7,70.0,51.1,38.0,35.0,27.9,18.0,68,45,17,29.86,29.66,8,2,15,0.00
2013-2-8,58.0,47.6,41.0,33.0,22.8,11.0,57,39,25,29.69,29.42,18,6,35,0.00
2013-2-9,40.0,35.3,32.0,30.0,26.6,12.0,81,72,31,29.66,29.36,9,4,16,0.17
2013-2-10,40.0,35.3,32.0,32.0,28.0,25.0,89,75,56,29.69,29.56,10,2,19,0.05
2013-2-11,48.0,33.5,26.0,29.0,23.2,18.0,86,67,40,29.86,29.66,11,2,14,0.12
2013-2-12,55.0,37.5,24.0,23.0,16.8,11.0,64,45,26,29.96,29.83,7,3,10,0.04
2013-2-13,65.0,44.5,29.0,24.0,16.3,11.0,50,34,18,29.96,29.79,7,3,10,0.00
2013-2-14,66.0,47.9,33.0,26.0,17.4,13.0,50,32,16,30.00,29.83,13,4,15,0.00
2013-2-15,70.0,50.9,38.0,21.0,12.3,2.0,37,23,12,30.16,29.96,11,5,16,0.00
2013-2-16,77.0,52.9,35.0,22.0,11.1,3.0,31,20,11,30.16,29.83,7,2,8,0.00
2013-2-17,69.0,51.3,36.0,22.0,10.7,4.0,32,20,12,29.86,29.56,13,4,26,0.00
2013-2-18,70.0,49.6,35.0,23.0,13.2,6.0,40,25,12,29.86,29.66,6,2,9,0.00
2013-2-19,62.0,48.2,37.0,23.0,13.4,6.0,40,26,14,29.69,29.29,14,5,22,0.00
2013-2-20,46.0,36.7,33.0,31.0,26.9,15.0,86,70,30,29.59,29.22,14,2,23,0.23
2013-2-21,37.0,34.6,32.0,33.0,29.7,26.0,87,82,75,29.76,29.56,4,0,6,0.08
2013-2-22,55.0,39.3,25.0,32.0,23.8,16.0,88,58,26,29.86,29.69,7,2,9,0.09
2013-2-23,58.0,43.3,29.0,26.0,19.9,15.0,59,41,25,29.86,29.46,12,4,18,0.05
2013-2-24,51.0,40.9,33.0,19.0,10.4,2.0,54,30,17,29.83,29.52,17,6,22,0.00
2013-2-25,63.0,42.8,28.0,19.0,10.2,4.0,43,28,13,29.93,29.73,9,3,11,0.00
2013-2-26,63.0,44.8,30.0,22.0,10.5,-2.0,48,28,13,29.86,29.66,14,5,24,0.00
2013-2-27,60.0,44.2,32.0,11.0,2.9,-4.0,23,18,14,30.00,29.86,12,5,19,0.00
2013-2-28,69.0,48.0,33.0,14.0,4.3,-4.0,20,17,12,30.13,30.00,9,3,13,0.00
2013-3-1,76.0,55.4,36.0,22.0,12.3,-1.0,31,19,13,30.16,30.00,8,3,13,0.00
2013-3-2,80.0,58.9,42.0,29.0,19.8,12.0,39,24,12,30.16,29.89,6,2,9,0.00
2013-3-3,64.0,54.1,43.0,31.0,22.1,16.0,45,30,19,29.93,29.62,9,3,11,0.00
2013-3-4,72.0,57.1,46.0,29.0,23.1,19.0,39,28,17,29.86,29.59,9,3,11,0.00
2013-3-5,70.0,53.9,41.0,29.0,21.4,15.0,48,30,14,29.89,29.76,7,2,13,0.00
2013-3-6,73.0,54.9,41.0,33.0,22.6,14.0,52,31,14,29.83,29.62,11,4,17,0.00
2013-3-7,72.0,55.2,40.0,32.0,21.8,14.0,49,30,14,29.76,29.59,13,4,22,0.00
2013-3-8,51.0,42.0,35.0,41.0,32.5,21.0,91,72,32,29.59,29.39,16,3,20,1.11
2013-3-9,38.0,36.4,35.0,35.0,33.3,31.0,92,88,85,29.79,29.56,4,1,6,0.53
2013-3-10,66.0,46.0,32.0,40.0,27.9,18.0,95,57,23,29.96,29.76,8,2,11,0.25
2013-3-11,72.0,51.1,36.0,29.0,23.2,19.0,51,37,16,30.00,29.76,7,2,10,0.04
2013-3-12,80.0,56.8,39.0,32.0,23.6,16.0,51,32,12,29.93,29.76,10,3,15,0.00
2013-3-13,83.0,61.1,44.0,32.0,23.0,14.0,43,26,11,30.06,29.89,10,3,13,0.00
2013-3-14,90.0,66.4,50.0,32.0,22.7,20.0,34,21,10,30.03,29.83,10,3,15,0.00
2013-3-15,87.0,65.4,50.0,33.0,23.3,16.0,36,22,11,29.93,29.69,8,3,12,0.00
2013-3-16,82.0,62.3,51.0,35.0,27.3,19.0,40,29,11,29.73,29.49,12,2,22,0.00
2013-3-17,82.0,61.5,46.0,35.0,22.2,6.0,49,27,10,29.69,29.49,18,5,27,0.00
2013-3-18,79.0,61.1,45.0,25.0,16.6,4.0,32,18,12,29.73,29.62,11,3,15,0.00
2013-3-19,80.0,62.2,51.0,33.0,24.4,15.0,38,26,12,29.86,29.66,9,2,16,0.00
2013-3-20,75.0,60.3,49.0,31.0,23.2,17.0,35,25,16,29.86,29.62,11,4,17,0.00
2013-3-21,80.0,62.7,49.0,36.0,25.6,15.0,48,28,11,29.62,29.42,13,4,23,0.00
2013-3-22,76.0,59.3,45.0,30.0,16.4,4.0,29,20,12,29.56,29.39,13,4,23,0.00
2013-3-23,67.0,52.1,41.0,14.0,6.6,1.0,18,16,12,29.76,29.52,16,5,19,0.00
2013-3-24,74.0,54.9,38.0,16.0,7.6,-1.0,19,15,11,29.79,29.59,15,4,19,0.00
2013-3-25,60.0,47.1,43.0,11.0,4.2,2.0,18,17,14,29.79,29.69,6,3,9,0.00
2013-3-29,77.0,77.0,77.0,26.0,26.0,26.0,15,15,15,29.89,29.89,0,0,0,0.00
2013-3-30,77.0,71.6,55.0,26.0,22.9,-99.9,30,17,13,29.89,29.76,0,0,0,0.00
2013-3-31,84.0,62.1,48.0,32.0,23.2,14.0,40,25,11,29.83,29.66,0,0,0,0.00
2013-4-1,77.0,61.8,47.0,34.0,21.1,8.0,43,23,13,29.73,29.62,0,0,0,0.00
2013-4-2,75.0,59.6,44.0,27.0,18.4,10.0,34,21,13,29.73,29.56,0,0,0,0.00
2013-4-3,82.0,63.9,47.0,32.0,22.4,10.0,44,23,12,29.86,29.69,0,0,0,0.00
2013-4-4,84.0,66.6,48.0,24.0,18.2,9.0,26,16,11,29.89,29.69,0,0,0,0.00
2013-4-5,81.0,64.5,51.0,30.0,20.9,14.0,30,20,12,29.76,29.59,0,0,0,0.00
2013-4-6,83.0,64.2,50.0,32.0,22.4,15.0,37,22,11,29.76,29.56,0,0,0,0.00
2013-4-7,82.0,63.7,49.0,32.0,23.2,15.0,37,23,12,29.66,29.46,0,0,0,0.00
2013-4-8,65.0,54.8,46.0,35.0,26.4,20.0,46,33,25,29.46,29.05,0,0,0,0.00
2013-4-9,61.0,49.5,42.0,37.0,25.7,15.0,76,43,19,29.62,29.19,0,0,0,0.04
2013-4-10,70.0,53.9,41.0,25.0,17.5,8.0,45,26,12,29.76,29.59,0,0,0,0.04
2013-4-11,78.0,59.5,42.0,26.0,18.4,9.0,36,22,13,29.73,29.52,0,0,0,0.00
2013-4-12,82.0,63.0,45.0,29.0,20.2,15.0,34,21,11,29.59,29.49,0,0,0,0.00
2013-4-13,83.0,66.6,49.0,29.0,20.6,11.0,32,19,11,29.62,29.39,0,0,0,0.00
2013-4-14,78.0,66.5,52.0,25.0,20.0,15.0,27,17,13,29.52,29.36,0,0,0,0.00
2013-4-15,74.0,62.9,53.0,30.0,25.6,21.0,33,24,16,29.49,29.36,0,0,0,0.00
2013-4-16,69.0,58.4,54.0,35.0,30.2,28.0,40,34,23,29.49,29.42,0,0,0,0.00
2013-4-21,86.0,74.6,61.0,25.0,18.5,11.0,14,12,10,29.76,29.62,0,0,0,0.00
2013-4-22,89.0,71.4,51.0,27.0,17.5,6.0,19,13,10,29.76,29.52,0,0,0,0.00
2013-4-23,84.0,67.8,52.0,24.0,15.8,7.0,21,14,10,29.69,29.52,0,0,0,0.00
2013-4-24,84.0,65.2,47.0,24.0,13.8,4.0,17,14,10,29.73,29.62,0,0,0,0.00
2013-4-25,79.0,65.3,50.0,24.0,18.2,8.0,27,17,13,29.79,29.62,0,0,0,0.00
2013-4-26,87.0,64.6,49.0,32.0,23.4,13.0,40,24,11,29.93,29.79,0,0,0,0.00
2013-4-27,90.0,70.6,51.0,27.0,18.7,10.0,23,15,10,29.96,29.69,0,0,0,0.00
2013-4-28,93.0,72.0,53.0,27.0,16.6,7.0,16,12,9,29.79,29.56,0,0,0,0.00
2013-4-29,96.0,77.1,56.0,28.0,19.0,8.0,15,12,9,29.66,29.46,0,0,0,0.00
2013-4-30,90.0,77.2,58.0,27.0,19.5,9.0,17,12,10,29.56,29.42,0,0,0,0.00
2013-5-1,89.0,73.9,55.0,26.0,18.0,8.0,15,12,10,29.93,29.56,0,0,0,0.00
2013-5-2,77.0,63.6,52.0,22.0,11.8,7.0,16,13,10,30.10,29.93,0,0,0,0.00
2013-5-3,87.0,68.7,51.0,26.0,15.1,6.0,16,13,10,30.00,29.59,0,0,0,0.00
2013-5-4,87.0,71.3,51.0,26.0,16.6,6.0,16,13,10,29.66,29.46,0,0,0,0.00
2013-5-5,79.0,67.4,58.0,22.0,14.7,9.0,22,13,11,29.69,29.52,0,0,0,0.00
2013-5-6,74.0,63.1,55.0,34.0,29.5,25.0,38,28,21,29.76,29.62,15,4,23,0.00
2013-5-7,70.0,60.4,50.0,40.0,32.7,20.0,56,37,17,29.73,29.56,16,6,21,0.00
2013-5-8,75.0,59.4,44.0,37.0,28.8,18.0,62,37,14,29.79,29.66,10,3,12,0.00
2013-5-9,82.0,58.8,49.0,31.0,27.6,23.0,41,32,12,29.76,29.69,10,2,17,0.00
2013-5-10,74.0,67.0,62.0,26.0,23.7,19.0,24,20,13,29.89,29.69,0,0,0,0.00
2013-5-11,87.0,70.6,57.0,34.0,24.9,-99.9,36,20,11,30.00,29.83,9,2,10,0.00
2013-5-12,94.0,75.6,56.0,31.0,23.1,12.0,26,15,9,30.03,29.76,9,4,11,0.00
2013-5-13,96.0,80.0,58.0,28.0,22.1,13.0,19,12,9,29.93,29.69,7,4,10,0.00
2013-5-14,96.0,77.9,60.0,28.0,22.7,15.0,23,13,9,29.79,29.62,11,3,11,0.00
2013-5-15,91.0,75.3,60.0,28.0,22.0,12.0,24,14,10,29.76,29.59,17,5,31,0.00
2013-5-16,89.0,69.4,56.0,27.0,8.2,-99.9,15,12,10,29.73,29.52,15,5,22,0.00
2013-5-17,83.0,70.0,57.0,24.0,14.5,-99.9,17,13,11,29.69,29.56,13,6,15,0.00
2013-5-18,85.0,70.1,55.0,28.0,19.6,9.0,25,15,11,29.73,29.56,4,4,4,0.00
2013-5-19,88.0,72.7,56.0,32.0,22.4,13.0,30,16,11,29.73,29.52,4,4,4,0.00
2013-5-20,86.0,72.4,55.0,25.0,19.0,11.0,22,13,11,29.73,29.59,4,4,4,0.00
2013-5-21,92.0,76.0,56.0,27.0,20.5,10.0,24,13,9,29.73,29.52,4,4,4,0.00
2013-5-24,91.0,75.8,57.0,27.0,20.1,10.0,22,13,10,29.76,29.59,4,4,4,0.00
2013-5-25,91.0,75.1,56.0,27.0,19.1,8.0,17,12,10,29.76,29.62,4,4,4,0.00
2013-5-26,89.0,73.6,55.0,26.0,17.9,8.0,15,12,10,29.76,29.62,4,4,4,0.00
2013-5-27,87.0,72.2,57.0,26.0,17.6,8.0,15,13,11,29.73,29.49,4,4,4,0.00
2013-5-28,86.0,71.3,56.0,25.0,19.1,11.0,19,14,11,29.56,29.36,4,2,4,0.00
2013-5-29,91.0,74.4,57.0,33.0,24.8,14.0,34,17,9,29.52,29.36,0,0,0,0.00
2013-5-30,93.0,76.1,59.0,36.0,25.1,15.0,27,16,9,29.62,29.49,0,0,0,0.00
2013-5-31,97.0,78.4,62.0,39.0,30.3,23.0,36,20,8,29.69,29.52,0,0,0,0.00
2013-6-1,102.0,83.1,70.0,30.0,23.2,15.0,22,11,7,29.73,29.56,0,0,0,0.00
2013-6-2,99.0,85.0,66.0,28.0,22.2,12.0,13,10,8,29.62,29.46,0,0,0,0.00
2013-6-3,97.0,83.6,65.0,29.0,23.3,15.0,18,11,8,29.66,29.49,0,0,0,0.00
2013-6-4,97.0,81.5,62.0,29.0,21.3,11.0,16,11,8,29.69,29.56,0,0,0,0.04
2013-6-5,100.0,83.5,62.0,28.0,21.6,11.0,14,10,8,29.73,29.52,0,0,0,0.04
2013-6-6,104.0,84.2,65.0,28.0,21.9,12.0,15,10,7,29.66,29.49,0,0,0,0.00
2013-6-7,107.0,85.5,67.0,29.0,21.5,13.0,12,10,6,29.62,29.42,0,0,0,0.00
2013-6-8,106.0,87.4,67.0,29.0,22.6,13.0,13,10,6,29.66,29.49,2,0,3,0.00
2013-6-9,106.0,87.4,69.0,29.0,22.7,14.0,13,10,6,29.73,29.56,13,4,16,0.00
2013-6-10,101.0,85.3,67.0,28.0,22.1,13.0,13,10,7,29.76,29.56,16,6,20,0.00
2013-6-11,102.0,84.2,65.0,28.0,21.3,12.0,13,10,7,29.76,29.62,15,4,19,0.00
2013-6-12,106.0,90.1,68.0,29.0,23.8,14.0,13,9,6,29.76,29.62,12,5,20,0.00
2013-6-13,101.0,87.1,68.0,28.0,24.0,14.0,14,10,7,29.73,29.56,15,6,23,0.00
2013-6-14,101.0,86.3,67.0,29.0,24.6,18.0,17,11,7,29.69,29.49,13,4,18,0.00
2013-6-15,98.0,81.7,67.0,28.0,22.9,17.0,15,12,8,29.73,29.59,11,4,15,0.00
2013-6-16,100.0,87.5,66.0,29.0,24.2,13.0,15,10,8,29.76,29.62,17,6,20,0.00
2013-6-17,99.0,86.1,65.0,29.0,22.8,12.0,13,10,8,29.76,29.59,15,6,22,0.00
2013-6-18,99.0,81.0,63.0,29.0,20.2,11.0,13,11,8,29.69,29.49,15,5,20,0.00
2013-6-19,96.0,79.3,61.0,28.0,19.9,11.0,14,11,9,29.59,29.49,19,6,24,0.00
2013-6-20,97.0,75.4,62.0,28.0,17.7,11.0,14,11,8,29.62,29.52,16,4,18,0.04
2013-6-21,96.0,92.8,85.0,28.0,27.0,25.0,11,10,9,29.62,29.56,11,9,17,0.12
2013-7-20,-200.0,0.0,200.0,-99.9,-99.9,-99.9,0,0,100,29.62,29.62,1,1,2,0.00
2013-7-22,81.0,74.9,73.0,61.0,58.4,53.0,65,57,38,29.79,29.73,10,2,13,0.00
2013-7-31,83.0,75.2,73.0,60.0,55.8,48.0,61,52,30,29.89,29.83,9,3,15,0.08
2013-8-1,87.0,76.1,70.0,61.0,54.7,48.0,65,49,26,29.86,29.69,6,1,6,0.08
2013-8-21,78.0,75.2,73.0,49.0,46.9,44.0,41,37,30,29.86,29.76,6,2,8,0.00
2013-8-22,82.0,74.6,70.0,55.0,49.6,45.0,57,42,29,29.83,29.73,7,3,9,0.00
2013-8-23,74.0,68.8,66.0,56.0,54.4,53.0,64,60,49,29.79,29.73,4,1,7,0.00
2013-8-24,75.0,68.7,68.0,62.0,47.1,-99.9,79,51,37,29.86,29.69,5,1,6,0.12
2013-8-25,78.0,69.8,66.0,64.0,60.6,52.0,88,73,53,29.93,29.76,6,1,8,0.45
2013-8-26,85.0,71.9,66.0,67.0,61.1,53.0,94,72,36,29.86,29.73,9,2,13,0.21
2013-8-27,77.0,69.5,67.0,58.0,56.7,54.0,72,65,45,29.79,29.76,6,2,8,0.04
2013-9-12,70.0,61.4,57.0,52.0,49.7,46.0,78,67,44,29.79,29.66,2,1,4,0.04
2013-9-13,72.0,65.7,62.0,51.0,47.5,46.0,65,53,40,29.69,29.59,3,1,4,0.00
2013-9-14,71.0,63.9,62.0,51.0,42.8,-99.9,63,50,39,29.62,29.56,10,2,13,0.00
2013-9-15,73.0,65.4,62.0,49.0,47.4,43.0,63,53,38,29.73,29.62,3,2,5,0.00
2013-9-16,81.0,69.6,64.0,50.0,45.8,43.0,51,43,30,29.76,29.66,4,1,5,0.00
2013-9-17,92.0,70.2,66.0,54.0,50.5,48.0,61,51,25,29.73,29.56,4,1,6,0.00
2013-9-18,71.0,68.3,66.0,51.0,50.2,49.0,58,53,46,29.59,29.56,1,0,2,0.00
2013-10-4,75.0,61.9,55.0,17.0,11.1,8.0,15,13,11,29.96,29.73,15,8,24,0.00
2013-10-5,75.0,58.1,53.0,21.0,-0.1,-99.9,16,12,13,30.00,29.93,16,9,23,0.00
2013-10-6,86.0,67.5,53.0,25.0,14.1,8.0,16,13,10,30.03,29.89,7,4,10,0.00
2013-10-7,87.0,74.4,56.0,26.0,18.7,8.0,15,12,11,29.93,29.76,6,3,8,0.00
2013-10-8,84.0,82.2,78.0,24.0,23.2,23.0,13,11,11,29.66,29.56,14,10,20,0.00
2013-10-9,77.0,62.2,55.0,36.0,30.9,21.0,38,32,13,29.52,29.42,10,7,17,0.00
2013-10-10,58.0,51.4,44.0,38.0,33.5,29.0,72,51,37,29.76,29.42,13,5,21,0.12
2013-10-11,62.0,45.8,40.0,33.0,31.6,27.0,69,59,26,29.79,29.73,3,1,5,0.12
2013-10-12,58.0,47.5,45.0,31.0,21.3,-99.9,50,41,29,29.83,29.69,3,1,4,0.00
2013-10-13,52.0,49.0,47.0,29.0,28.7,28.0,49,45,39,29.73,29.69,2,0,3,0.00